Latest Weather Observations for Maroochydore

IDQ60801

Issued at 7:32 am EST Saturday 30 July 2016 (issued every 30 minutes, with the page automatically refreshed every 10 minutes)

About weather observations | Map of weather stations | Latest weather observations for QLD | Other Formats
Station Details ID: 040861 Name: SUNSHINE COAST AIRPORT Lat: -26.60 Lon: 153.09 Height: 3.3 m
Data from the previous 72 hours. | See also: Recent months at Maroochydore
Date/Time
EST
Temp
°C
App
Temp
°C
Dew
Point
°C
Rel
Hum
%
Delta-T
°C
Wind Press
QNH
hPa
Press
MSL
hPa
Rain since
9am
mm
Dir  Spd
km/h
Gust
km/h
Spd
kts
Gust
kts
30/07:18am 9.6 8.1 9.3 98 0.1 W 7 9 4 5 1020.4 - 0.0
30/07:00am 8.2 6.0 7.9 98 0.1 W 9 9 5 5 1020.3 - 0.0
30/06:58am 8.1 5.9 7.8 98 0.1 W 9 9 5 5 1020.2 - 0.0
30/06:39am 7.6 5.3 7.3 98 0.1 W 9 11 5 6 1020.1 - 0.0
30/06:30am 8.0 5.8 7.7 98 0.1 W 9 11 5 6 1020.1 - 0.0
30/06:20am 8.0 5.8 7.7 98 0.1 W 9 11 5 6 1020.1 - 0.0
30/06:14am 8.2 6.0 7.9 98 0.1 W 9 11 5 6 1020.0 - 0.0
30/06:00am 7.5 5.1 7.2 98 0.1 W 9 11 5 6 1019.9 1019.9 0.0
30/05:54am 8.2 5.6 7.9 98 0.1 W 11 13 6 7 1019.9 - 0.0
30/05:49am 8.6 6.1 8.3 98 0.1 W 11 13 6 7 1019.9 - 0.0
30/05:30am 8.5 6.0 8.2 98 0.1 W 11 13 6 7 1019.7 - 0.0
30/05:00am 8.9 6.9 8.6 98 0.1 WNW 9 11 5 6 1019.4 - 0.0
30/04:30am 8.6 7.1 8.3 98 0.1 WSW 6 9 3 5 1019.3 - 0.0
30/04:27am 8.8 7.3 8.5 98 0.1 WSW 6 7 3 4 1019.4 - 0.0
30/04:00am 9.1 7.1 8.8 98 0.1 WSW 9 11 5 6 1019.4 - 0.0
30/03:30am 9.2 6.9 8.9 98 0.1 W 11 11 6 6 1019.3 - 0.0
30/03:08am 9.2 7.6 8.7 97 0.2 W 7 9 4 5 1019.5 - 0.0
30/03:00am 9.1 7.5 8.8 98 0.1 W 7 9 4 5 1019.5 1019.5 0.0
30/02:46am 8.9 6.9 8.5 97 0.2 W 9 9 5 5 1019.5 - 0.0
30/02:30am 9.3 7.3 8.8 97 0.2 WSW 9 9 5 5 1019.7 - 0.0
30/02:00am 9.7 7.8 9.2 97 0.2 W 9 9 5 5 1019.8 - 0.0
30/01:30am 10.0 7.9 9.7 98 0.2 W 11 11 6 6 1020.1 - 0.0
30/01:00am 10.0 8.2 9.5 97 0.2 W 9 11 5 6 1020.5 - 0.0
30/12:30am 10.1 8.3 9.6 97 0.2 W 9 11 5 6 1020.7 - 0.0
30/12:00am 10.4 9.1 9.9 97 0.3 W 7 9 4 5 1020.8 1020.8 0.0
 
Date/Time
EST
Temp
°C
App
Temp
°C
Dew
Point
°C
Rel
Hum
%
Delta-T
°C
Wind Press
QNH
hPa
Press
MSL
hPa
Rain since
9am
mm
Dir  Spd
km/h
Gust
km/h
Spd
kts
Gust
kts
29/11:30pm 10.6 8.9 10.0 96 0.3 W 9 11 5 6 1021.0 - 0.0
29/11:00pm 11.0 9.5 10.4 96 0.3 W 9 11 5 6 1021.0 - 0.0
29/10:30pm 11.4 10.0 10.8 96 0.3 W 9 11 5 6 1021.1 - 0.0
29/10:00pm 11.3 10.4 10.5 95 0.4 WSW 6 7 3 4 1020.9 - 0.0
29/09:30pm 11.7 10.4 11.1 96 0.3 WSW 9 9 5 5 1021.0 - 0.0
29/09:00pm 11.1 9.5 10.2 94 0.5 W 9 11 5 6 1020.9 1020.9 0.0
29/08:30pm 11.7 10.5 10.4 92 0.7 WNW 7 9 4 5 1020.8 - 0.0
29/08:00pm 12.3 11.3 10.9 91 0.7 WNW 7 9 4 5 1020.7 - 0.0
29/07:30pm 12.7 11.7 10.9 89 0.9 W 7 9 4 5 1020.5 - 0.0
29/07:25pm 13.1 12.3 11.2 88 1.0 W 6 9 3 5 1020.5 - 0.0
29/07:00pm 13.8 12.8 11.1 84 1.4 W 7 9 4 5 1020.3 - 0.0
29/06:59pm 14.0 13.1 11.3 84 1.4 W 7 9 4 5 1020.2 - 0.0
29/06:30pm 17.3 16.2 11.8 70 3.0 E 9 13 5 7 1020.1 - 0.0
29/06:00pm 18.1 16.7 12.1 68 3.3 E 11 15 6 8 1019.8 1019.8 0.0
29/05:30pm 18.2 16.3 11.7 66 3.6 E 13 15 7 8 1019.6 - 0.0
29/05:00pm 18.9 16.9 11.5 62 4.1 E 13 17 7 9 1019.6 - 0.0
29/04:30pm 19.6 17.1 10.9 57 4.7 E 15 17 8 9 1019.6 - 0.0
29/04:00pm 20.2 17.9 10.6 54 5.2 E 13 17 7 9 1019.5 - 0.0
29/03:30pm 20.5 18.2 10.3 52 5.5 E 13 17 7 9 1019.6 - 0.0
29/03:00pm 20.6 18.1 11.0 54 5.2 E 15 19 8 10 1019.6 1019.6 0.0
29/02:30pm 20.8 18.1 10.3 51 5.7 ESE 15 19 8 10 1019.7 - 0.0
29/02:00pm 20.8 17.6 8.4 45 6.5 ESE 15 20 8 11 1020.1 - 0.0
29/01:30pm 20.8 17.9 10.9 53 5.4 ESE 17 19 9 10 1020.4 - 0.0
29/01:00pm 22.0 19.1 11.1 50 6.0 ESE 17 19 9 10 1020.7 - 0.0
29/12:30pm 21.1 18.1 10.6 51 5.7 ESE 17 19 9 10 1021.1 - 0.0
29/12:00pm 21.0 17.8 8.3 44 6.6 ESE 15 19 8 10 1021.6 1021.6 0.0
29/11:30am 21.9 19.0 9.8 46 6.5 SE 15 20 8 11 1022.0 - 0.0
29/11:00am 21.7 18.6 8.9 44 6.8 SE 15 20 8 11 1022.6 - 0.0
29/10:30am 20.9 17.9 9.2 47 6.2 SSE 15 22 8 12 1022.8 - 0.0
29/10:00am 20.6 18.0 9.2 48 6.0 S 13 20 7 11 1023.3 - 0.0
29/09:30am 19.2 17.6 11.5 61 4.2 SSW 11 17 6 9 1023.2 - 0.0
29/09:00am 16.9 16.1 11.2 69 3.1 S 6 9 3 5 1023.3 1023.3 0.0
29/08:30am 14.9 13.7 11.7 81 1.7 SSE 9 11 5 6 1023.2 - 0.0
29/08:00am 12.6 11.5 12.0 96 0.3 W 9 11 5 6 1022.9 - 0.0
29/07:30am 10.8 9.7 10.5 98 0.2 W 7 9 4 5 1022.8 - 0.0
29/07:00am 8.4 6.6 8.1 98 0.1 W 7 9 4 5 1022.8 - 0.0
29/06:30am 7.4 5.6 7.0 97 0.2 W 6 7 3 4 1022.6 - 0.0
29/06:00am 8.5 6.8 8.2 98 0.1 WNW 7 9 4 5 1022.3 1022.3 0.0
29/05:30am 7.9 5.6 7.5 97 0.2 WSW 9 9 5 5 1021.9 - 0.0
29/05:00am 8.8 7.1 8.4 97 0.2 W 7 9 4 5 1021.7 - 0.0
29/04:30am 8.5 6.9 8.1 97 0.2 W 6 7 3 4 1021.5 - 0.0
29/04:14am 8.1 6.2 7.7 97 0.2 W 7 9 4 5 1021.5 - 0.0
29/04:00am 8.6 6.9 8.2 97 0.2 W 7 7 4 4 1021.5 - 0.0
29/03:56am 8.6 7.0 8.2 97 0.2 W 6 7 3 4 1021.5 - 0.0
29/03:30am 9.1 7.5 8.6 97 0.2 W 7 7 4 4 1021.5 - 0.0
29/03:00am 9.3 7.7 8.8 97 0.2 W 7 11 4 6 1021.6 1021.6 0.0
29/02:30am 8.9 6.9 8.5 97 0.2 WSW 9 11 5 6 1021.6 - 0.0
29/02:00am 8.7 7.2 8.3 97 0.2 WSW 6 7 3 4 1021.6 - 0.0
29/01:30am 8.9 6.9 8.5 97 0.2 W 9 11 5 6 1021.8 - 0.0
29/01:00am 9.6 7.7 9.1 97 0.2 W 9 11 5 6 1022.0 - 0.0
29/12:30am 9.3 7.9 8.7 96 0.3 WSW 6 7 3 4 1021.9 - 0.0
29/12:00am 9.5 8.1 8.9 96 0.3 WSW 6 6 3 3 1022.2 1022.2 0.0
 
Date/Time
EST
Temp
°C
App
Temp
°C
Dew
Point
°C
Rel
Hum
%
Delta-T
°C
Wind Press
QNH
hPa
Press
MSL
hPa
Rain since
9am
mm
Dir  Spd
km/h
Gust
km/h
Spd
kts
Gust
kts
28/11:30pm 9.3 7.8 8.5 95 0.4 WSW 6 7 3 4 1022.4 - 0.0
28/11:00pm 9.7 8.4 9.1 96 0.3 WSW 6 7 3 4 1022.6 - 0.0
28/10:30pm 10.0 8.5 9.2 95 0.4 SW 7 9 4 5 1022.9 - 0.0
28/10:00pm 9.9 8.5 9.0 94 0.4 SW 6 7 3 4 1023.1 - 0.0
28/09:30pm 10.3 9.0 9.2 93 0.5 SW 6 7 3 4 1023.1 - 0.0
28/09:00pm 10.5 9.2 9.3 92 0.6 W 6 7 3 4 1023.2 1023.2 0.0
28/08:30pm 11.3 10.2 9.9 91 0.7 W 6 7 3 4 1023.2 - 0.0
28/08:00pm 11.4 9.9 9.1 86 1.1 W 7 7 4 4 1023.3 - 0.0
28/07:30pm 12.0 10.6 9.6 85 1.2 WSW 7 9 4 5 1023.2 - 0.0
28/07:00pm 12.0 10.2 9.4 84 1.3 WSW 9 11 5 6 1023.0 - 0.0
28/06:30pm 13.5 12.1 9.7 78 1.9 SSW 7 9 4 5 1022.6 - 0.0
28/06:00pm 15.1 13.2 9.0 67 3.1 S 9 11 5 6 1022.4 1022.4 0.0
28/05:30pm 16.1 13.9 9.3 64 3.5 S 11 13 6 7 1022.0 - 0.0
28/05:00pm 17.6 15.5 9.8 60 4.1 SSE 11 15 6 8 1021.8 - 0.0
28/04:30pm 18.5 15.5 9.3 55 4.8 SSE 15 20 8 11 1021.7 - 0.0
28/04:00pm 19.6 15.9 9.5 52 5.4 SE 19 24 10 13 1021.6 - 0.0
28/03:30pm 20.1 16.8 9.4 50 5.7 SE 17 20 9 11 1021.6 - 0.0
28/03:00pm 20.2 16.2 9.2 49 5.8 SE 20 24 11 13 1021.3 1021.3 0.0
28/02:39pm 20.5 16.7 9.7 50 5.8 SE 20 26 11 14 1021.3 - 0.0
28/02:30pm 20.1 16.1 9.1 49 5.8 SE 20 24 11 13 1021.4 - 0.0
28/02:00pm 20.6 16.7 9.5 49 5.9 SE 20 24 11 13 1021.6 - 0.0
28/01:48pm 20.7 17.2 8.7 46 6.3 ESE 17 22 9 12 1021.6 - 0.0
28/01:30pm 21.5 18.2 8.1 42 7.0 SE 15 20 8 11 1021.7 - 0.0
28/01:00pm 21.6 17.5 6.3 37 7.7 SE 17 20 9 11 1022.0 - 0.0
28/12:30pm 21.1 17.0 6.2 38 7.5 SE 17 20 9 11 1022.3 - 0.0
28/12:00pm 21.0 17.2 5.8 37 7.5 SSE 15 20 8 11 1022.7 1022.7 0.0
28/11:30am 20.7 16.3 4.7 35 7.8 SSW 17 22 9 12 1023.1 - 0.0
28/11:00am 20.3 15.4 3.9 34 7.8 SSW 19 26 10 14 1023.6 - 0.0
28/10:30am 19.4 14.0 2.7 33 7.7 SSW 20 28 11 15 1023.8 - 0.0
28/10:00am 18.7 13.6 2.9 35 7.3 S 19 26 10 14 1023.8 - 0.0
28/09:30am 18.3 13.9 4.8 41 6.5 SSW 17 24 9 13 1023.9 - 0.0
28/09:00am 16.6 13.4 6.7 52 4.8 SW 13 20 7 11 1023.7 1023.7 0.0
28/08:30am 14.1 11.6 8.3 68 2.9 SW 11 17 6 9 1023.4 - 0.0
28/08:00am 11.3 8.8 8.3 82 1.5 WSW 11 13 6 7 1023.2 - 0.0
28/07:30am 7.7 5.4 7.3 97 0.2 SW 9 9 5 5 1022.7 - 0.0
28/07:00am 5.4 2.9 4.8 96 0.3 SW 7 9 4 5 1022.2 - 0.0
28/06:30am 4.5 2.0 3.8 95 0.3 W 6 7 3 4 1022.1 - 0.0
28/06:00am 4.9 1.9 4.0 94 0.4 WSW 9 11 5 6 1021.8 1021.8 0.0
28/05:30am 5.8 2.6 5.2 96 0.3 WSW 11 13 6 7 1021.5 - 0.0
28/05:00am 3.9 0.7 3.2 95 0.3 WSW 9 9 5 5 1021.1 - 0.0
28/04:30am 4.2 1.7 3.5 95 0.3 WSW 6 7 3 4 1020.9 - 0.0
28/04:00am 5.5 3.2 4.9 96 0.3 WSW 6 6 3 3 1021.0 - 0.0
28/03:30am 5.0 2.6 4.4 96 0.3 SW 6 7 3 4 1021.0 - 0.0
28/03:00am 5.4 3.1 4.8 96 0.3 W 6 7 3 4 1021.2 1021.2 0.0
28/02:30am 5.3 2.8 4.6 95 0.3 W 7 11 4 6 1021.2 - 0.0
28/02:00am 5.2 2.3 4.5 95 0.3 WNW 9 11 5 6 1021.4 - 0.0
28/01:30am 6.0 3.2 5.3 95 0.3 WNW 9 13 5 7 1021.4 - 0.0
28/01:00am 6.0 3.2 5.3 95 0.3 W 9 13 5 7 1021.5 - 0.0
28/12:30am 6.1 2.9 5.2 94 0.4 W 11 13 6 7 1021.4 - 0.0
28/12:00am 6.6 3.9 5.7 94 0.4 W 9 13 5 7 1021.2 1021.2 0.0
 
Date/Time
EST
Temp
°C
App
Temp
°C
Dew
Point
°C
Rel
Hum
%
Delta-T
°C
Wind Press
QNH
hPa
Press
MSL
hPa
Rain since
9am
mm
Dir  Spd
km/h
Gust
km/h
Spd
kts
Gust
kts
27/11:30pm 6.4 3.0 5.7 95 0.3 W 13 15 7 8 1021.2 - 0.0
27/11:00pm 6.8 4.2 5.9 94 0.4 W 9 9 5 5 1021.3 - 0.0
27/10:30pm 6.8 4.7 5.7 93 0.5 WNW 6 7 3 4 1021.3 - 0.0
27/10:00pm 7.0 5.2 5.5 90 0.7 SW 4 7 2 4 1021.2 - 0.0
27/09:30pm 8.8 7.1 7.4 91 0.7 SSW 6 7 3 4 1020.8 - 0.0
27/09:00pm 8.9 6.7 7.8 93 0.5 W 9 13 5 7 1020.4 1020.4 0.0
27/08:30pm 8.6 5.8 6.9 89 0.8 W 11 15 6 8 1019.9 - 0.0
27/08:00pm 9.4 7.0 6.8 84 1.2 WNW 9 11 5 6 1019.7 - 0.0
27/07:30pm 10.9 8.7 8.0 82 1.4 WNW 9 11 5 6 1019.4 - 0.0
27/07:00pm 11.6 9.9 8.5 81 1.5 WNW 7 9 4 5 1019.1 - 0.0
27/06:30pm 12.5 10.5 8.6 77 1.9 W 9 11 5 6 1018.6 - 0.0
27/06:00pm 13.4 11.3 8.3 71 2.5 W 9 9 5 5 1018.2 1018.2 0.0
27/05:30pm 14.2 12.2 8.8 70 2.7 W 9 11 5 6 1017.7 - 0.0
27/05:00pm 15.6 13.4 7.9 60 3.9 WNW 9 9 5 5 1017.5 - 0.0
27/04:30pm 17.8 16.0 8.1 53 5.0 WNW 7 9 4 5 1017.2 - 0.0
27/04:00pm 17.7 16.5 9.6 59 4.3 WNW 6 9 3 5 1017.1 - 0.0
27/03:30pm 18.0 16.1 7.4 50 5.3 WSW 7 9 4 5 1016.9 - 0.0
27/03:00pm 18.6 15.7 4.4 39 6.8 WSW 9 11 5 6 1016.9 1016.9 0.0
27/02:30pm 18.7 15.4 4.8 40 6.7 WSW 11 15 6 8 1017.1 - 0.0
27/02:00pm 19.0 14.3 3.2 35 7.4 WSW 17 20 9 11 1017.3 - 0.0
27/01:30pm 19.7 15.6 4.6 37 7.3 W 15 20 8 11 1017.4 - 0.0
27/01:00pm 19.7 15.4 3.0 33 7.8 WSW 15 24 8 13 1017.5 - 0.0
27/12:30pm 19.3 15.0 3.1 34 7.6 W 15 22 8 12 1018.0 - 0.0
27/12:00pm 18.5 14.4 4.3 39 6.7 WSW 15 20 8 11 1018.0 1018.0 0.0
27/11:30am 19.1 16.0 5.6 41 6.6 W 11 20 6 11 1018.4 - 0.0
27/11:00am 19.5 16.6 4.4 37 7.2 SW 9 15 5 8 1018.9 - 0.0
27/10:30am 20.9 18.3 6.1 38 7.4 WSW 9 15 5 8 1019.2 - 0.0
27/10:00am 20.3 17.6 7.3 43 6.6 W 11 15 6 8 1019.2 - 0.0
27/09:30am 20.1 17.8 5.0 37 7.4 WSW 6 11 3 6 1019.1 - 0.0
27/09:00am 18.0 16.1 7.7 51 5.2 W 7 11 4 6 1019.2 1019.2 0.0
27/08:30am 16.6 14.5 8.1 57 4.3 W 9 11 5 6 1019.0 - 0.0
27/08:00am 14.5 12.3 9.5 72 2.6 W 11 15 6 8 1018.7 - 0.0

Other Formats:

Comma delimited format used in spreadsheet applications
http://www.bom.gov.au/fwo/IDQ60801/IDQ60801.94569.axf

JavaScript Object Notation format (JSON) in row-major order
http://www.bom.gov.au/fwo/IDQ60801/IDQ60801.94569.json